Windham, Iowa
Current Conditions -  °F | °C
As of 6:52 PM on Friday 24 Oct 2014 (Local Time) from KIOW Reporting Station
Haze Haze  
Wind Chill: 60°   Ceiling: 1100
Heat Index: 60°   Visibility: 4mi
Dew Point: 60°   Wind: 5mph
Humidity: 100%   Direction: 190°S
Pressure: 29.95"   Gusts: NA
Location:  41.6512°N, 91.7745°W
Report Text: KIOW 242352Z AUTO 19004KT 4SM BR OVC011 16/16 A2995 RMK AO2 RAE17 SLP143 P0001 60001 T01560156 10183 20144 53011
Loading
Personal Weather Stations






























Interactive Weather Map
Tropical Storm Tracking
New forecast layout! Learn more

10-Day Weather Forecast

Advertisements
Track Severe Weather on mobile